Insider Buying

 
Symbol Name Keyword
Filings for:
Note: This page automatically refreshes every three minutes.
  Symbol Owner Relationship Date Cost # Shares Value($) Total Shares Filing
Y! ASRV WISE ROBERT L Director Jul 15, 2019 $4.12 168 692 158,012 Jul 19, 2019, 11:28 AM
Y! TPL HORIZON KINETICS ASSET MANAGEMENT LLC 10% Owner Jul 18, 2019 $759.50 49 37,216 299,311 Jul 19, 2019, 11:00 AM
Y! BKSC Walpole Eugene H IV Executive Vice President Jul 18, 2019 $18.81 500 9,405 4,111 Jul 19, 2019, 10:16 AM
Y! GABC Snowden Raymond Ward Director Jul 15, 2019 $29.77 672 20,005 30,085 Jul 19, 2019, 10:10 AM
Y! GABC Ramsey Chris A Director Jul 15, 2019 $29.77 672 20,005 20,271 Jul 19, 2019, 10:02 AM
Y! GABC Fine Marc D Director Jul 15, 2019 $29.77 168 5,001 37,760 Jul 19, 2019, 09:57 AM
Y! ICBK Roe Patrick J Director Jul 18, 2019 $17.20 4,876 83,863 12,157 Jul 19, 2019, 09:49 AM
Y! GABC KELLY JASON M Director Jul 15, 2019 $29.77 672 20,005 1,243 Jul 19, 2019, 09:44 AM
Y! GABC Bawel Zachary W Director Jul 15, 2019 $29.77 672 20,005 4,153 Jul 19, 2019, 09:39 AM
Y! GABC SEGER THOMAS W Director Jul 15, 2019 $29.77 672 20,005 342,094 Jul 19, 2019, 09:34 AM
Y! GABC KLEM U BUTCH Director Jul 15, 2019 $29.77 672 20,005 177,767 Jul 19, 2019, 09:25 AM
Y! GABC ERNST CHRISTINA M Director Jul 15, 2019 $29.77 672 20,005 52,213 Jul 19, 2019, 09:20 AM
Y! RRTS ELLIOTT INTERNATIONAL, L.P. 10% Owner Jul 18, 2019 $10.52 915 9,626 23,145,546 Jul 19, 2019, 08:40 AM
Y! RRTS ELLIOTT INTERNATIONAL, L.P. 10% Owner Jul 17, 2019 $11.29 1,320 14,903 23,144,631 Jul 19, 2019, 08:40 AM
Y! AXLA Epstein David R Director Jul 17, 2019 $7.55 1,000 7,550 31,352 Jul 18, 2019, 09:54 PM
Y! FSLY Abdiel Capital Management, LLC 10% Owner Jul 17, 2019 $21.26 35,185 748,033 2,484,714 Jul 18, 2019, 09:37 PM
Y! FSLY Abdiel Capital Management, LLC 10% Owner Jul 18, 2019 $21.33 1,249 26,641 2,528,465 Jul 18, 2019, 09:37 PM
Y! FSLY Abdiel Capital Management, LLC 10% Owner Jul 16, 2019 $21.27 1,719 36,563 2,449,529 Jul 18, 2019, 09:37 PM
Y! FSLY Abdiel Capital Management, LLC 10% Owner Jul 18, 2019 $21.33 41,452 884,171 2,527,216 Jul 18, 2019, 09:37 PM
Y! FSLY Abdiel Capital Management, LLC 10% Owner Jul 16, 2019 $21.27 57,047 1,213,390 2,447,810 Jul 18, 2019, 09:37 PM
Y! FSLY Abdiel Capital Management, LLC 10% Owner Jul 17, 2019 $21.26 1,050 22,323 2,485,764 Jul 18, 2019, 09:37 PM
Y! OTEL SOCHET IRA 10% Owner Jul 18, 2019 $14.72 1,997 29,396 1,113,640 Jul 18, 2019, 08:04 PM
Y! OTEL SOCHET IRA 10% Owner Jul 17, 2019 $14.65 20,500 300,325 1,111,643 Jul 18, 2019, 08:04 PM
Y! MACK Aryeh Jason 10% Owner Jul 16, 2019 $5.44 302 1,643 3,802 Jul 18, 2019, 07:38 PM
Y! SNES SIEGEL KENNETH S CEO Jul 16, 2019 $1.35 696,296 940,000 702,558 Jul 18, 2019, 05:48 PM
Y! APVO El-Hibri Fuad Director Jul 18, 2019 $0.87 14,404 12,596 903,061 Jul 18, 2019, 05:12 PM
Y! ALTD Kanuth Robert CEO Jul 17, 2019 $0.16 100,000 16,400 7,995,672 Jul 18, 2019, 04:51 PM
Y! APVO El-Hibri Fuad Director Jul 17, 2019 $0.87 19,136 16,704 888,657 Jul 18, 2019, 04:50 PM
Y! TPL HORIZON KINETICS ASSET MANAGEMENT LLC 10% Owner Jul 17, 2019 $769.49 157 120,810 299,262 Jul 18, 2019, 04:15 PM
Y! QCRH Ziegler Marie Z. Director Jul 18, 2019 $33.59 195 6,550 25,419 Jul 18, 2019, 03:40 PM
Y! FRAF Cekovich Ronald L svp Jul 17, 2019 $37.83 3 113 6,769 Jul 18, 2019, 02:42 PM
Y! FRAF Carmack Karen K svp Jul 17, 2019 $37.83 1 38 872 Jul 18, 2019, 02:40 PM
Y! RMES JEFFS RICHARD 10% Owner Aug 03, 2017 $0.08 1,687,621 135,010 7,916,184 Jul 18, 2019, 02:01 PM
Y! RMES JEFFS RICHARD 10% Owner Mar 15, 2016 $0.32 199,857 64,954 6,228,563 Jul 18, 2019, 01:55 PM
Y! RMES JEFFS RICHARD 10% Owner Mar 11, 2016 $0.09 35,000 3,150 6,028,706 Jul 18, 2019, 01:38 PM
Y! RMES JEFFS RICHARD 10% Owner Nov 27, 2015 $0.11 1,874,857 202,485 5,993,706 Jul 18, 2019, 01:33 PM
Y! ORMP Sank Leonard Director Jul 18, 2019 $3.86 4,497 17,336 349,999 Jul 18, 2019, 01:31 PM
Y! ORMP Sank Leonard Director Jul 17, 2019 $3.63 30,020 109,059 345,502 Jul 18, 2019, 01:31 PM
Y! ORMP Sank Leonard Director Jul 16, 2019 $3.47 20,000 69,316 315,482 Jul 18, 2019, 01:31 PM
Y! RMES JEFFS RICHARD 10% Owner Nov 23, 2015 $0.25 480,064 121,120 4,118,849 Jul 18, 2019, 01:29 PM
Y! MMD Nolan Richard H Jr Director Mar 07, 2019 $20.30 25,000 507,500 25,000 Jul 18, 2019, 12:34 PM
Y! CXDO MIHAYLO STEVEN G Chief Executive Officer Jul 17, 2019 $3.15 500 1,575 10,252,975 Jul 18, 2019, 12:20 PM
Y! IEA Roehm John Paul President and CEO Jul 15, 2019 $2.79 1,000 2,790 220,839 Jul 18, 2019, 08:18 AM
Y! IEA Layman Andrew Dean Chief Financial Officer Jul 15, 2019 $2.79 1,000 2,790 143,906 Jul 18, 2019, 08:15 AM
Y! ONCS Alpha Holdings, Inc. Director Jul 15, 2019 $2.22 30,000 66,600 1,521,000 Jul 17, 2019, 09:55 PM
Y! ONCS Alpha Holdings, Inc. Director Jul 16, 2019 $2.34 60,000 140,400 1,581,000 Jul 17, 2019, 09:55 PM
Y! BTN Fundamental Global Investors, LLC Director Jul 16, 2019 $2.70 1,626 4,386 1,312,465 Jul 17, 2019, 09:00 PM
Y! BTN Fundamental Global Investors, LLC Director Jul 17, 2019 $2.64 1,626 4,297 1,329,188 Jul 17, 2019, 09:00 PM
Y! BTN Fundamental Global Investors, LLC Director Jul 15, 2019 $2.82 1,626 4,586 1,325,936 Jul 17, 2019, 09:00 PM
Y! BTN Fundamental Global Investors, LLC Director Jul 17, 2019 $2.64 1,626 4,297 1,314,091 Jul 17, 2019, 09:00 PM
Y! BTN Fundamental Global Investors, LLC Director Jul 15, 2019 $2.82 1,627 4,589 1,310,839 Jul 17, 2019, 09:00 PM
Y! BTN Fundamental Global Investors, LLC Director Jul 16, 2019 $2.70 1,626 4,386 1,327,562 Jul 17, 2019, 09:00 PM
Y! NGM GOEDDEL DAVID V Director Jul 16, 2019 $13.86 3,900 54,055 15,936,063 Jul 17, 2019, 06:43 PM
Y! NGM GOEDDEL DAVID V Director Jul 15, 2019 $13.69 16,188 221,547 15,932,163 Jul 17, 2019, 06:43 PM
Y! NGM Svennilson Peter Director Jul 16, 2019 $13.86 3,900 54,055 15,746,063 Jul 17, 2019, 06:36 PM
Y! NGM Svennilson Peter Director Jul 15, 2019 $13.69 16,188 221,547 15,742,163 Jul 17, 2019, 06:36 PM
Y! INUV TERRELL PATRICK Director Jul 15, 2019 $0.30 167,000 50,100 167,000 Jul 17, 2019, 06:09 PM
Y! INUV TERRELL PATRICK Director Jul 15, 2019 $0.30 167,000 50,100 167,000 Jul 17, 2019, 06:09 PM
Y! INUV TERRELL PATRICK Director Jul 15, 2019 $0.30 333,000 99,900 1,017,694 Jul 17, 2019, 06:09 PM
Y! NGM COLUMN GROUP L P 10% Owner Jul 16, 2019 $13.86 3,900 54,055 2,176,972 Jul 17, 2019, 06:08 PM
Y! NGM COLUMN GROUP L P 10% Owner Jul 15, 2019 $13.69 16,188 221,547 2,173,072 Jul 17, 2019, 06:08 PM
Y! INUV MORGAN CHARLES D Director Jul 15, 2019 $0.30 1,650,000 495,000 3,711,200 Jul 17, 2019, 06:08 PM
Y! UBP Biddle Catherine U Director Jul 12, 2019 $16.90 480 8,112 2,328 Jul 17, 2019, 05:48 PM
Y! ARCW Wallis Gregory D Director May 22, 2019 $0.55 2,500 1,375 2,500 Jul 17, 2019, 04:59 PM
Y! HCCH GUSS JONATHAN G Director Jul 16, 2019 $0.02 16,880 294 32,071 Jul 17, 2019, 04:50 PM
Y! CRK Blue Star Exploration Corp 10% Owner Jul 16, 2019 $6.00 50,000,000 300,000,000 138,571,429 Jul 17, 2019, 04:13 PM
Y! ASPU MacLean Malcolm F IV Director Jul 16, 2019 $4.72 2,000 9,440 674,349 Jul 17, 2019, 04:06 PM
Y! CVLB Schreiber Justin Chief Executive Officer Jul 15, 2019 $0.07 10,000 664 6,830,695 Jul 17, 2019, 03:44 PM
Y! CVLB Schreiber Justin Chief Executive Officer Jul 12, 2019 $0.12 15,000 1,824 6,820,695 Jul 17, 2019, 03:44 PM
Y! PGTK Fresh Air Investments (Canada) Ltd. 10% Owner Sep 25, 2017 $1.00 3,809,276 3,809,276 7,260,772 Jul 17, 2019, 02:56 PM
Y! PGTK Fresh Air Investments (Canada) Ltd. 10% Owner Aug 15, 2018 $1.80 192,982 347,368 7,710,864 Jul 17, 2019, 02:56 PM
Y! PGTK Fresh Air Investments (Canada) Ltd. 10% Owner Dec 27, 2017 $0.00 934,963 935 8,046,846 Jul 17, 2019, 02:56 PM
Y! CNBKA EVANGELISTA PAUL A Executive Vice President Jul 16, 2019 $85.80 2 172 5,887 Jul 17, 2019, 02:47 PM
Y! YORW DOTZEL CYNTHIA Director Jul 15, 2019 $33.35 31 1,034 15,226 Jul 17, 2019, 02:21 PM
Y! YORW DOTZEL CYNTHIA Director Jul 16, 2019 $35.36 17 601 15,257 Jul 17, 2019, 02:21 PM
Y! GGO GABELLI MARIO J Director Jul 15, 2019 $15.68 300 4,704 1,454 Jul 17, 2019, 02:05 PM
Y! UNT Peyton G Bailey IV Director Jul 17, 2019 $7.30 3,000 21,900 74,652 Jul 17, 2019, 01:47 PM
Y! BUSE LYKINS GREGORY B Director Jun 12, 2019 $25.33 505 12,790 2,744 Jul 17, 2019, 12:18 PM
Y! LCRDX Christina & Robert Dow Foundation 10% Owner Jul 15, 2019 $10.11 989,120 10,000,003 1,985,136 Jul 17, 2019, 11:17 AM
Y! TPL HORIZON KINETICS ASSET MANAGEMENT LLC 10% Owner Jul 16, 2019 $779.61 49 38,201 299,105 Jul 17, 2019, 10:55 AM
Y! RRTS ELLIOTT INTERNATIONAL, L.P. 10% Owner Jul 16, 2019 $11.70 2,080 24,336 23,143,311 Jul 17, 2019, 08:35 AM
Y! RRTS ELLIOTT INTERNATIONAL, L.P. 10% Owner Jul 15, 2019 $11.47 2,460 28,216 23,141,231 Jul 17, 2019, 08:35 AM
Y! OPK FROST PHILLIP MD ET AL CEO & Chairman Jul 16, 2019 $2.12 50,000 105,981 30,127,177 Jul 17, 2019, 07:14 AM
Y! WISH Cove Street Capital, LLC 10% Owner Jul 12, 2019 $0.40 40,280 16,112 303,667 Jul 16, 2019, 08:54 PM
Y! OTEL SOCHET IRA 10% Owner Jul 12, 2019 $14.65 1,100 16,115 1,087,369 Jul 16, 2019, 08:21 PM
Y! OTEL SOCHET IRA 10% Owner Jul 15, 2019 $14.50 3,774 54,723 1,091,143 Jul 16, 2019, 08:21 PM
Y! AMAR CHEN STEPHEN T President,Chairman,CEO,CFO Jul 16, 2019 $0.32 2,000 635 612,000 Jul 16, 2019, 06:43 PM
Y! AMAR CHEN STEPHEN T President,Chairman,CEO,CFO Jul 12, 2019 $0.33 5,000 1,650 610,000 Jul 16, 2019, 06:43 PM
Y! FRAN CROSS RIVER CAPITAL MANAGEMENT LLC 10% Owner Jul 15, 2019 $4.01 56,284 225,699 576,500 Jul 16, 2019, 06:19 PM
Y! FRAN CROSS RIVER CAPITAL MANAGEMENT LLC 10% Owner Jul 12, 2019 $4.23 29,000 122,670 520,216 Jul 16, 2019, 06:19 PM
Y! FRAN CROSS RIVER CAPITAL MANAGEMENT LLC 10% Owner Jul 16, 2019 $3.58 10,000 35,800 586,500 Jul 16, 2019, 06:19 PM
Y! CNBKA Filler James J 10% Owner Jul 15, 2019 $87.05 598 52,056 701,919 Jul 16, 2019, 06:05 PM
Y! CNBKA Filler James J 10% Owner Jul 09, 2019 $88.75 200 17,750 700,611 Jul 16, 2019, 06:05 PM
Y! CNBKA Filler James J 10% Owner Jul 12, 2019 $88.90 100 8,890 701,321 Jul 16, 2019, 06:05 PM
Y! CNBKA Filler James J 10% Owner Jul 11, 2019 $88.88 410 36,441 701,221 Jul 16, 2019, 06:05 PM
Y! CNBKA Filler James J 10% Owner Jul 16, 2019 $86.16 1,000 86,160 702,919 Jul 16, 2019, 06:05 PM
Y! CNBKA Filler James J 10% Owner Jul 10, 2019 $89.25 200 17,850 700,811 Jul 16, 2019, 06:05 PM
Y! APVO El-Hibri Fuad Director Jul 16, 2019 $0.85 11,375 9,662 869,521 Jul 16, 2019, 05:54 PM
Y! CHAP Strategic Value Partners, LLC 10% Owner Jul 12, 2019 $5.82 404,321 2,353,148 7,068,337 Jul 16, 2019, 05:26 PM
Y! CHAP Strategic Value Partners, LLC 10% Owner Jul 16, 2019 $5.44 150,000 816,000 7,171,895 Jul 16, 2019, 05:26 PM
Next : Last
 
Symbol Name Keyword
Filings for:
Note: This page automatically refreshes every three minutes.
Desktop Version
Symbol Owner Relationship Date Value($)
ASRV WISE ROBERT L Director Jul 15, 2019 692
TPL HORIZON KINETICS ASSET MANAGEMENT LLC 10% Owner Jul 18, 2019 37,216
BKSC Walpole Eugene H IV Executive Vice President Jul 18, 2019 9,405
GABC Snowden Raymond Ward Director Jul 15, 2019 20,005
GABC Ramsey Chris A Director Jul 15, 2019 20,005
GABC Fine Marc D Director Jul 15, 2019 5,001
ICBK Roe Patrick J Director Jul 18, 2019 83,863
GABC KELLY JASON M Director Jul 15, 2019 20,005
GABC Bawel Zachary W Director Jul 15, 2019 20,005
GABC SEGER THOMAS W Director Jul 15, 2019 20,005
GABC KLEM U BUTCH Director Jul 15, 2019 20,005
GABC ERNST CHRISTINA M Director Jul 15, 2019 20,005
RRTS ELLIOTT INTERNATIONAL, L.P. 10% Owner Jul 18, 2019 9,626
RRTS ELLIOTT INTERNATIONAL, L.P. 10% Owner Jul 17, 2019 14,903
AXLA Epstein David R Director Jul 17, 2019 7,550
FSLY Abdiel Capital Management, LLC 10% Owner Jul 17, 2019 748,033
FSLY Abdiel Capital Management, LLC 10% Owner Jul 18, 2019 26,641
FSLY Abdiel Capital Management, LLC 10% Owner Jul 16, 2019 36,563
FSLY Abdiel Capital Management, LLC 10% Owner Jul 18, 2019 884,171
FSLY Abdiel Capital Management, LLC 10% Owner Jul 16, 2019 1,213,390
FSLY Abdiel Capital Management, LLC 10% Owner Jul 17, 2019 22,323
OTEL SOCHET IRA 10% Owner Jul 18, 2019 29,396
OTEL SOCHET IRA 10% Owner Jul 17, 2019 300,325
MACK Aryeh Jason 10% Owner Jul 16, 2019 1,643
SNES SIEGEL KENNETH S CEO Jul 16, 2019 940,000
APVO El-Hibri Fuad Director Jul 18, 2019 12,596
ALTD Kanuth Robert CEO Jul 17, 2019 16,400
APVO El-Hibri Fuad Director Jul 17, 2019 16,704
TPL HORIZON KINETICS ASSET MANAGEMENT LLC 10% Owner Jul 17, 2019 120,810
QCRH Ziegler Marie Z. Director Jul 18, 2019 6,550
FRAF Cekovich Ronald L svp Jul 17, 2019 113
FRAF Carmack Karen K svp Jul 17, 2019 38
RMES JEFFS RICHARD 10% Owner Aug 03, 2017 135,010
RMES JEFFS RICHARD 10% Owner Mar 15, 2016 64,954
RMES JEFFS RICHARD 10% Owner Mar 11, 2016 3,150
RMES JEFFS RICHARD 10% Owner Nov 27, 2015 202,485
ORMP Sank Leonard Director Jul 18, 2019 17,336
ORMP Sank Leonard Director Jul 17, 2019 109,059
ORMP Sank Leonard Director Jul 16, 2019 69,316
RMES JEFFS RICHARD 10% Owner Nov 23, 2015 121,120
MMD Nolan Richard H Jr Director Mar 07, 2019 507,500
CXDO MIHAYLO STEVEN G Chief Executive Officer Jul 17, 2019 1,575
IEA Roehm John Paul President and CEO Jul 15, 2019 2,790
IEA Layman Andrew Dean Chief Financial Officer Jul 15, 2019 2,790
ONCS Alpha Holdings, Inc. Director Jul 15, 2019 66,600
ONCS Alpha Holdings, Inc. Director Jul 16, 2019 140,400
BTN Fundamental Global Investors, LLC Director Jul 16, 2019 4,386
BTN Fundamental Global Investors, LLC Director Jul 17, 2019 4,297
BTN Fundamental Global Investors, LLC Director Jul 15, 2019 4,586
BTN Fundamental Global Investors, LLC Director Jul 17, 2019 4,297
BTN Fundamental Global Investors, LLC Director Jul 15, 2019 4,589
BTN Fundamental Global Investors, LLC Director Jul 16, 2019 4,386
NGM GOEDDEL DAVID V Director Jul 16, 2019 54,055
NGM GOEDDEL DAVID V Director Jul 15, 2019 221,547
NGM Svennilson Peter Director Jul 16, 2019 54,055
NGM Svennilson Peter Director Jul 15, 2019 221,547
INUV TERRELL PATRICK Director Jul 15, 2019 50,100
INUV TERRELL PATRICK Director Jul 15, 2019 50,100
INUV TERRELL PATRICK Director Jul 15, 2019 99,900
NGM COLUMN GROUP L P 10% Owner Jul 16, 2019 54,055
NGM COLUMN GROUP L P 10% Owner Jul 15, 2019 221,547
INUV MORGAN CHARLES D Director Jul 15, 2019 495,000
UBP Biddle Catherine U Director Jul 12, 2019 8,112
ARCW Wallis Gregory D Director May 22, 2019 1,375
HCCH GUSS JONATHAN G Director Jul 16, 2019 294
CRK Blue Star Exploration Corp 10% Owner Jul 16, 2019 300,000,000
ASPU MacLean Malcolm F IV Director Jul 16, 2019 9,440
CVLB Schreiber Justin Chief Executive Officer Jul 15, 2019 664
CVLB Schreiber Justin Chief Executive Officer Jul 12, 2019 1,824
PGTK Fresh Air Investments (Canada) Ltd. 10% Owner Sep 25, 2017 3,809,276
PGTK Fresh Air Investments (Canada) Ltd. 10% Owner Aug 15, 2018 347,368
PGTK Fresh Air Investments (Canada) Ltd. 10% Owner Dec 27, 2017 935
CNBKA EVANGELISTA PAUL A Executive Vice President Jul 16, 2019 172
YORW DOTZEL CYNTHIA Director Jul 15, 2019 1,034
YORW DOTZEL CYNTHIA Director Jul 16, 2019 601
GGO GABELLI MARIO J Director Jul 15, 2019 4,704
UNT Peyton G Bailey IV Director Jul 17, 2019 21,900
BUSE LYKINS GREGORY B Director Jun 12, 2019 12,790
LCRDX Christina & Robert Dow Foundation 10% Owner Jul 15, 2019 10,000,003
TPL HORIZON KINETICS ASSET MANAGEMENT LLC 10% Owner Jul 16, 2019 38,201
RRTS ELLIOTT INTERNATIONAL, L.P. 10% Owner Jul 16, 2019 24,336
RRTS ELLIOTT INTERNATIONAL, L.P. 10% Owner Jul 15, 2019 28,216
OPK FROST PHILLIP MD ET AL CEO & Chairman Jul 16, 2019 105,981
WISH Cove Street Capital, LLC 10% Owner Jul 12, 2019 16,112
OTEL SOCHET IRA 10% Owner Jul 12, 2019 16,115
OTEL SOCHET IRA 10% Owner Jul 15, 2019 54,723
AMAR CHEN STEPHEN T President,Chairman,CEO,CFO Jul 16, 2019 635
AMAR CHEN STEPHEN T President,Chairman,CEO,CFO Jul 12, 2019 1,650
FRAN CROSS RIVER CAPITAL MANAGEMENT LLC 10% Owner Jul 15, 2019 225,699
FRAN CROSS RIVER CAPITAL MANAGEMENT LLC 10% Owner Jul 12, 2019 122,670
FRAN CROSS RIVER CAPITAL MANAGEMENT LLC 10% Owner Jul 16, 2019 35,800
CNBKA Filler James J 10% Owner Jul 15, 2019 52,056
CNBKA Filler James J 10% Owner Jul 09, 2019 17,750
CNBKA Filler James J 10% Owner Jul 12, 2019 8,890
CNBKA Filler James J 10% Owner Jul 11, 2019 36,441
CNBKA Filler James J 10% Owner Jul 16, 2019 86,160
CNBKA Filler James J 10% Owner Jul 10, 2019 17,850
APVO El-Hibri Fuad Director Jul 16, 2019 9,662
CHAP Strategic Value Partners, LLC 10% Owner Jul 12, 2019 2,353,148
CHAP Strategic Value Partners, LLC 10% Owner Jul 16, 2019 816,000
Next : Last